AirNav   ATP
 
 1546 users online  

09T Lazy G Bar Ranch Airport
Decatur, Texas, USA

GOING TO DECATUR?


FAA INFORMATION EFFECTIVE 19 JULY 2018

Location

FAA Identifier: 09T
Lat/Long: 33-16-52.7545N / 097-29-48.0960W
33-16.879242N / 097-29.801600W
33.2813207 / -97.4966933
(estimated)
Elevation: 931 ft. / 284 m (estimated)
Variation: 07E (1985)
From city: 5 miles NE of DECATUR, TX
Time zone: UTC -5 (UTC -6 during Standard Time)
Zip code: 76234

Airport Operations

Airport use: Open to the public
Activation date: 06/1987
Control tower: no
ARTCC: FORT WORTH CENTER
FSS: FORT WORTH FLIGHT SERVICE STATION
NOTAMs facility: FTW (NOTAM-D service available)
Attendance: UNATNDD
Pattern altitude: 1431 ft. MSL
Wind indicator: yes
Segmented circle: no

Airport Communications

CTAF: 122.9
WX AWOS-3 at LUD (5 nm W): 118.225 (940-627-2365)
WX ASOS at DTO (16 nm E): 119.325 (940-383-8457)
WX AWOS-3 at XBP (18 nm W): 119.225 (940-683-8027)
WX ASOS at AFW (20 nm SE): PHONE 817-491-6188

Nearby radio navigation aids

VOR radial/distance  VOR name  Freq  Var
UKWr127/22.3BOWIE VORTAC117.1506E
FUZr320/28.4RANGER VORTAC115.7006E
TTTr311/33.7MAVERICK VOR/DME113.1006E
CVEr302/37.9COWBOY VOR/DME116.2006E

 
NDB name  Hdg/Dist  Freq  Var  ID
GRINDSTONE MOUNTAIN140/23.935604EGMZ --. -- --..

Airport Services

Runway Information

Runway 17/35

Dimensions: 1600 x 40 ft. / 488 x 12 m
CENTER 20 FT MOWED.
Surface: turf/dirt, in poor condition
ROLLING GRADIENT. FULL RY NOT VISIBLE FM ENDS.
RUNWAY 17  RUNWAY 35
Latitude: 33-17.011150N33-16.747333N
Longitude: 097-29.803683W097-29.799517W
Elevation: 930.7 ft.918.3 ft.
Traffic pattern: rightleft
Obstructions: 7 ft. fence, 44 ft. left of centerlinenone

Airport Ownership and Management from official FAA records

Ownership: Privately-owned
Owner: DONALD R. GLITTENBERG
175 PR 2321
DECATUR, TX 76234
Phone (719) 221-7993
Manager: DONALD R. GLITTENBERG
175 PR 2321
DECATUR, TX 76234
Phone (719) 221-7993

Airport Operational Statistics

Aircraft based on the field: 4
Single engine airplanes: 4
    
Aircraft operations: avg 65/month *
94% local general aviation
6% transient general aviation
* for 12-month period ending 31 December 2016

Additional Remarks

LIVESTOCK ON & INVOF ARPT.
FOR FLD COND CALL AMGR. CALL AHEAD TO CONFIRM RWY IS CLEAR OF LIVESTOCK.
FOR CD CTC REGIONAL APCH AT 972-615-2799.

Instrument Procedures

There are no published instrument procedures at 09T.

Some nearby airports with instrument procedures:

KLUD - Decatur Municipal Airport (5 nm W)
KDTO - Denton Enterprise Airport (16 nm E)
KXBP - Bridgeport Municipal Airport (18 nm W)
4T2 - Kenneth Copeland Airport (18 nm S)
KAFW - Fort Worth Alliance Airport (20 nm SE)
 
Loc | Ops | Rwys | IFR | FBO | Links
Com | Nav | Svcs | Stats | Notes


 
Area around 09T (Lazy G Bar Ranch Airport)
 
Road maps at: MapQuest Bing Google
 
Aerial photo
No photo
 
Sectional chart

 
Airport distance calculator
Flying to Lazy G Bar Ranch Airport? Find the distance to fly.

From to 09T

Sunrise and sunset
Times for 20-Jul-2018
 Local
(UTC-5)
 Zulu
(UTC)
Morning civil twilight06:0811:08
Sunrise06:3611:36
Sunset20:3701:37
Evening civil twilight21:0502:05

Current date and time
Zulu (UTC)  20-Jul-2018 17:27:00
Local (UTC-5)  20-Jul-2018 12:27:00
 
METAR
KLUD 
5nm W 
118.22 940-927-2365
201715Z AUTO 26005G14KT 10SM CLR 38/15 A2994 RMK AO2 T03770154
KDTO 
16nm E 
201653Z 22011KT 10SM CLR 38/17 A2991 RMK AO2 SLP117 T03780172
KXBP 
18nm W 
201715Z AUTO 26008KT 10SM CLR 38/16 A2994 RMK AO2 T03820155
TAF
KAFW 
21nm SE 
201453Z 2015/2112 21012KT P6SM BKN300 FM201900 18010KT P6SM SCT300
NOTAMs
Click for the latest NOTAMs
NOTAMs are issued by the DoD/FAA and will open in a separate window not controlled by AirNav.

 

 
 

Would you like to see your business listed on this page?

 If your business provides an interesting product or service to pilots, flight crews, aircraft, or users of the Lazy G Bar Ranch Airport, you should consider listing it here.  To start the listing process, click on the button below
 
Add a business
 

Other Pages about Lazy G Bar Ranch Airport

Update a link
 
Copyright © AirNav, LLC. All rights reserved. Privacy Policy  Contact